EST,Max TemperatureF,Mean TemperatureF,Min TemperatureF,Max Dew PointF,MeanDew PointF,Min DewpointF,Max Humidity, Mean Humidity, Min Humidity, Max Sea Level PressureIn, Mean Sea Level PressureIn, Min Sea Level PressureIn, Max VisibilityMiles, Mean VisibilityMiles, Min VisibilityMiles, Max Wind SpeedMPH, Mean Wind SpeedMPH, Max Gust SpeedMPH,PrecipitationIn, CloudCover, Events, WindDirDegrees
2013-11-1,68,58,48,58,49,38,93,72,44,29.66,29.46,29.28,10,7,2,20,5,31,0.42,7,Rain,229
2013-11-2,55,44,35,43,37,32,89,77,57,29.85,29.69,29.61,10,10,5,13,3,,0.05,6,Rain,304
2013-11-3,37,29,21,31,19,14,82,63,41,30.46,30.16,29.85,10,10,10,12,5,20,0.00,3,,350
2013-11-4,37,26,15,18,14,9,85,68,33,30.70,30.65,30.51,10,10,10,7,1,,0.00,0,,290
2013-11-5,46,32,18,25,19,13,85,68,34,30.70,30.60,30.48,10,10,10,7,1,,0.00,0,,255
2013-11-6,57,41,25,40,31,22,92,72,40,30.47,30.23,29.91,10,10,9,9,1,16,0.00,1,,263
2013-11-7,59,47,35,52,42,25,93,79,58,29.87,29.75,29.68,10,6,1,14,5,21,0.48,8,Rain,281
2013-11-8,37,34,30,27,23,20,75,65,56,30.06,29.90,29.82,10,9,2,16,8,24,0.00,7,Snow,259
2013-11-9,37,34,30,28,22,18,85,64,47,30.16,30.08,29.98,10,8,2,12,6,17,0.00,8,Snow,267
2013-11-10,43,38,32,36,32,28,93,85,76,29.96,29.78,29.69,10,6,0,8,2,,0.11,8,Fog-Rain-Snow,258
2013-11-11,41,36,32,31,27,23,85,68,53,30.07,29.95,29.82,10,10,5,16,8,22,0.01,8,Rain-Snow,251
2013-11-12,37,30,23,34,20,14,87,73,60,30.15,29.98,29.79,10,6,0,18,11,30,0.04,8,Fog-Rain-Snow,279
2013-11-13,28,24,19,16,11,7,75,60,44,30.29,30.20,30.06,10,9,2,12,8,17,0.00,6,Snow,262
2013-11-14,42,32,23,25,22,17,88,71,51,30.07,30.04,30.01,10,10,8,9,2,,0.00,2,,233
2013-11-15,52,36,21,29,20,13,89,68,21,30.21,30.14,30.08,10,10,10,6,1,,0.00,0,,265
2013-11-16,55,40,25,28,23,20,85,67,25,30.33,30.28,30.20,10,10,10,10,1,,0.00,1,,294
2013-11-17,55,39,23,48,35,19,88,75,57,30.31,30.13,29.79,10,10,6,14,3,21,0.05,5,Rain,211
2013-11-18,60,51,42,52,39,27,81,62,43,29.73,29.53,29.41,10,9,2,18,12,30,0.22,5,Rain,216
2013-11-19,39,33,27,28,17,13,72,59,50,30.31,30.02,29.61,10,9,2,18,11,34,0.00,8,Snow,293
2013-11-20,36,26,16,15,11,6,84,56,29,30.67,30.55,30.33,10,10,9,8,5,,0.00,2,,327
2013-11-21,39,26,14,20,14,8,84,65,30,30.68,30.54,30.38,10,10,10,12,1,,0.00,0,,266
2013-11-22,35,28,21,34,29,17,96,88,72,30.35,29.98,29.75,10,3,1,6,0,,0.05,7,Rain-Snow,56
2013-11-23,39,29,19,35,19,13,97,76,52,29.92,29.77,29.66,10,7,0,16,8,26,0.10,8,Fog-Rain-Snow,279
2013-11-24,19,16,10,14,6,-2,81,66,47,30.17,29.85,29.72,10,4,1,21,11,33,0.00,8,Snow,281
2013-11-25,21,14,8,11,1,-5,71,58,32,30.37,30.27,30.19,10,10,8,12,6,24,0.00,3,,226
2013-11-26,33,27,21,28,23,13,89,77,61,30.27,30.18,30.02,10,5,1,7,2,,0.09,8,Snow,265
2013-11-27,53,42,30,48,37,27,93,87,76,30.01,29.42,29.28,10,4,0,16,7,29,1.00,8,Fog-Rain-Snow,250
2013-11-28,30,20,10,25,12,3,81,72,53,30.41,29.89,29.46,10,6,1,20,11,26,0.01,6,Snow,271
2013-11-29,21,11,1,9,2,-5,84,74,48,30.77,30.57,30.35,10,10,10,7,1,,0.00,3,,209
2013-11-30,25,12,-2,17,5,-10,88,71,48,30.82,30.62,30.31,10,9,2,7,1,,0.00,3,Snow,352